createdAt,value
2023-01-10T00:03:56.937Z,13.60
2023-01-10T00:08:58.505Z,15.80
2023-01-10T00:13:59.984Z,13.15
2023-01-10T00:19:01.458Z,18.77
2023-01-10T00:24:23.388Z,16.25
2023-01-10T00:29:29.069Z,16.73
2023-01-10T00:34:32.586Z,20.02
2023-01-10T00:39:34.043Z,23.02
2023-01-10T00:44:35.528Z,16.00
2023-01-10T00:49:37.008Z,14.60
2023-01-10T00:54:38.521Z,13.38
2023-01-10T00:59:39.991Z,11.23
2023-01-10T01:04:41.465Z,13.35
2023-01-10T01:10:01.307Z,13.10
2023-01-10T01:15:02.780Z,8.23
2023-01-10T01:20:04.573Z,11.02
2023-01-10T01:25:06.248Z,12.75
2023-01-10T01:30:09.700Z,7.85
2023-01-10T01:35:12.764Z,8.75
2023-01-10T01:45:36.415Z,9.80
2023-01-10T01:51:05.138Z,9.30
2023-01-10T01:56:27.808Z,11.25
2023-01-10T02:01:29.854Z,17.10
2023-01-10T02:06:31.435Z,11.20
2023-01-10T02:11:32.911Z,14.25
2023-01-10T02:16:34.382Z,15.68
2023-01-10T02:21:47.841Z,14.65
2023-01-10T02:27:35.853Z,17.65
2023-01-10T02:32:57.012Z,14.80
2023-01-10T02:38:20.626Z,12.73
2023-01-10T02:43:24.205Z,16.02
2023-01-10T02:48:25.687Z,20.92
2023-01-10T02:53:28.604Z,15.73
2023-01-10T02:58:48.522Z,15.18
2023-01-10T03:03:56.731Z,16.65
2023-01-10T03:09:19.613Z,12.10
2023-01-10T03:14:22.957Z,12.18
2023-01-10T03:19:25.088Z,19.35
2023-01-10T03:24:41.842Z,15.77
2023-01-10T03:29:55.857Z,17.45
2023-01-10T03:34:58.220Z,22.23
2023-01-10T03:40:30.325Z,17.25
2023-01-10T03:45:40.208Z,19.45
2023-01-10T03:50:42.501Z,15.35
2023-01-10T03:55:43.995Z,16.98
2023-01-10T04:00:45.495Z,14.23
2023-01-10T04:05:46.972Z,18.90
2023-01-10T04:10:49.270Z,20.85
2023-01-10T04:15:51.461Z,24.77
2023-01-10T04:20:52.943Z,21.92
2023-01-10T04:25:54.430Z,22.48
2023-01-10T04:30:55.921Z,29.80
2023-01-10T04:35:57.392Z,21.80
2023-01-10T04:40:58.903Z,22.45
2023-01-10T04:46:00.403Z,27.95
2023-01-10T04:51:01.911Z,19.27
2023-01-10T04:56:07.454Z,19.70
2023-01-10T05:01:16.463Z,24.02
2023-01-10T05:06:18.053Z,21.50
2023-01-10T05:11:19.519Z,25.77
2023-01-10T05:16:21.071Z,23.85
2023-01-10T05:21:22.579Z,14.82
2023-01-10T05:26:24.077Z,20.52
2023-01-10T05:31:25.591Z,18.58
2023-01-10T05:36:27.088Z,15.80
2023-01-10T05:41:28.543Z,15.73
2023-01-10T05:46:30.140Z,17.20
2023-01-10T05:51:31.618Z,22.38
2023-01-10T05:56:33.104Z,19.17
2023-01-10T06:01:34.650Z,21.73
2023-01-10T06:06:36.165Z,15.90
2023-01-10T06:11:38.869Z,12.05
2023-01-10T06:16:41.722Z,20.35
2023-01-10T06:21:43.253Z,16.85
2023-01-10T06:26:44.789Z,12.48
2023-01-10T06:31:46.282Z,16.40
2023-01-10T06:36:47.755Z,17.52
2023-01-10T06:41:49.212Z,12.85
2023-01-10T06:46:50.666Z,10.77
2023-01-10T06:51:52.146Z,15.80
2023-01-10T06:56:53.617Z,14.77
2023-01-10T07:01:55.220Z,16.42
2023-01-10T07:06:56.763Z,15.57
2023-01-10T07:11:58.257Z,12.05
2023-01-10T07:16:59.721Z,12.20
2023-01-10T07:22:01.211Z,10.98
2023-01-10T07:27:02.678Z,13.52
2023-01-10T07:32:04.827Z,17.17
2023-01-10T07:37:06.281Z,10.45
2023-01-10T07:42:09.282Z,16.05
2023-01-10T07:47:11.020Z,14.98
2023-01-10T07:52:12.512Z,12.88
2023-01-10T07:57:14.338Z,17.45
2023-01-10T08:02:15.847Z,16.85
2023-01-10T08:07:17.390Z,20.98
2023-01-10T08:12:18.855Z,11.85
2023-01-10T08:17:20.329Z,15.18
2023-01-10T08:22:21.802Z,19.08
2023-01-10T08:27:23.270Z,13.80
2023-01-10T08:32:24.808Z,13.18
2023-01-10T08:37:26.330Z,19.27
2023-01-10T08:42:27.797Z,20.23
2023-01-10T08:47:29.509Z,16.67
2023-01-10T08:52:30.994Z,17.58
2023-01-10T08:57:32.486Z,16.10
2023-01-10T09:02:34.028Z,17.60
2023-01-10T09:07:35.591Z,18.98
2023-01-10T09:12:54.835Z,17.10
2023-01-10T09:17:57.079Z,20.73
2023-01-10T09:22:59.572Z,18.27
2023-01-10T09:28:01.525Z,13.77
2023-01-10T09:33:03.074Z,20.65
2023-01-10T09:38:05.269Z,17.92
2023-01-10T09:43:31.812Z,13.60
2023-01-10T09:48:49.689Z,17.23
2023-01-10T09:53:53.590Z,16.30
2023-01-10T09:58:55.499Z,23.65
2023-01-10T10:04:15.924Z,20.33
2023-01-10T10:09:23.713Z,20.63
2023-01-10T10:14:46.257Z,14.70
2023-01-10T10:19:55.920Z,23.17
2023-01-10T10:25:05.965Z,22.20
2023-01-10T10:30:18.097Z,19.88
2023-01-10T10:35:30.465Z,26.90
2023-01-10T10:40:33.684Z,13.90
2023-01-10T10:45:40.520Z,20.25
2023-01-10T10:51:08.090Z,20.85
2023-01-10T10:56:13.081Z,23.95
2023-01-10T11:01:14.803Z,21.70
2023-01-10T11:06:16.416Z,23.08
2023-01-10T11:11:34.012Z,22.50
2023-01-10T11:16:43.629Z,25.65
2023-01-10T11:21:47.199Z,33.35
2023-01-10T11:26:48.707Z,28.85
2023-01-10T11:31:50.236Z,28.30
2023-01-10T11:36:52.976Z,23.67
2023-01-10T11:41:55.961Z,22.30
2023-01-10T11:52:03.454Z,19.60
2023-01-10T11:57:29.225Z,19.42
2023-01-10T12:02:33.441Z,28.35
2023-01-10T12:08:06.018Z,18.70
2023-01-10T12:13:14.594Z,17.17
2023-01-10T12:18:19.359Z,26.90
2023-01-10T12:23:21.909Z,16.65
2023-01-10T12:28:25.337Z,16.77
2023-01-10T12:33:27.896Z,14.77
2023-01-10T12:39:06.241Z,22.88
2023-01-10T12:44:14.924Z,16.30
2023-01-10T12:49:25.300Z,15.20
2023-01-10T12:54:28.184Z,17.63
2023-01-10T12:59:38.253Z,16.08
2023-01-10T13:04:41.321Z,20.88
2023-01-10T13:09:42.855Z,18.05
2023-01-10T13:14:48.556Z,19.30
2023-01-10T13:20:17.878Z,18.05
2023-01-10T13:25:27.622Z,19.55
2023-01-10T13:30:29.321Z,16.33
2023-01-10T13:35:38.588Z,18.58
2023-01-10T13:40:40.617Z,20.23
2023-01-10T13:45:43.115Z,17.55
2023-01-10T13:51:11.250Z,18.77
2023-01-10T13:56:50.983Z,19.15
2023-01-10T14:02:15.071Z,21.50
2023-01-10T14:07:30.771Z,15.23
2023-01-10T14:12:40.151Z,21.58
2023-01-10T14:17:41.642Z,18.65
2023-01-10T14:23:21.883Z,23.23
2023-01-10T14:28:30.416Z,26.92
2023-01-10T14:38:35.168Z,21.13
2023-01-10T14:43:54.544Z,18.55
2023-01-10T14:49:00.674Z,28.15
2023-01-10T14:54:03.911Z,18.90
2023-01-10T14:59:24.399Z,25.45
2023-01-10T15:04:27.480Z,21.40
2023-01-10T15:14:31.123Z,23.90
2023-01-10T15:19:37.227Z,21.90
2023-01-10T15:24:38.739Z,21.02
2023-01-10T15:29:44.814Z,23.55
2023-01-10T15:34:49.272Z,21.33
2023-01-10T15:39:50.757Z,18.70
2023-01-10T15:44:52.703Z,18.30
2023-01-10T15:49:54.398Z,21.20
2023-01-10T15:54:57.013Z,17.48
2023-01-10T15:59:58.973Z,18.77
2023-01-10T16:05:07.783Z,22.52
2023-01-10T16:10:22.214Z,22.95
2023-01-10T16:15:25.108Z,26.17
2023-01-10T16:20:41.119Z,28.13
2023-01-10T16:30:49.406Z,23.95
2023-01-10T16:35:52.678Z,23.80
2023-01-10T16:41:22.373Z,24.92
2023-01-10T16:46:23.883Z,22.92
2023-01-10T16:51:32.581Z,22.73
2023-01-10T16:56:34.199Z,23.25
2023-01-10T17:01:38.529Z,23.13
2023-01-10T17:06:41.243Z,26.40
2023-01-10T17:11:42.792Z,27.08
2023-01-10T17:16:44.327Z,23.02
2023-01-10T17:21:45.993Z,17.67
2023-01-10T17:26:47.477Z,20.60
2023-01-10T17:31:49.069Z,24.70
2023-01-10T17:36:50.563Z,24.35
2023-01-10T17:41:52.061Z,22.65
2023-01-10T17:46:56.827Z,26.23
2023-01-10T17:51:58.833Z,28.13
2023-01-10T17:57:00.899Z,23.88
2023-01-10T18:02:02.585Z,31.52
2023-01-10T18:07:04.169Z,24.67
2023-01-10T18:12:06.085Z,25.48
2023-01-10T18:17:09.383Z,26.13
2023-01-10T18:22:29.565Z,22.50
2023-01-10T18:27:31.077Z,28.00
2023-01-10T18:32:32.711Z,28.92
2023-01-10T18:37:34.519Z,26.63
2023-01-10T18:42:36.301Z,26.00
2023-01-10T18:47:37.802Z,24.80
2023-01-10T18:52:39.283Z,30.92
2023-01-10T18:57:40.777Z,25.17
2023-01-10T19:02:42.312Z,27.27
2023-01-10T19:07:43.846Z,24.80
2023-01-10T19:12:45.326Z,26.42
2023-01-10T19:17:46.799Z,19.70
2023-01-10T19:22:48.349Z,25.60
2023-01-10T19:27:49.855Z,21.83
2023-01-10T19:32:51.340Z,27.80
2023-01-10T19:37:53.063Z,22.20
2023-01-10T19:42:54.695Z,26.80
2023-01-10T19:47:56.188Z,25.63
2023-01-10T19:52:57.677Z,30.40
2023-01-10T19:57:59.543Z,29.92
2023-01-10T20:03:01.103Z,24.90
2023-01-10T20:08:04.888Z,27.10
2023-01-10T20:13:07.163Z,25.73
2023-01-10T20:18:09.377Z,25.58
2023-01-10T20:23:12.201Z,27.02
2023-01-10T20:28:13.777Z,18.55
2023-01-10T20:33:15.293Z,20.98
2023-01-10T20:38:16.755Z,18.80
2023-01-10T20:43:18.232Z,23.02
2023-01-10T20:48:19.993Z,20.55
2023-01-10T20:53:21.493Z,21.75
2023-01-10T20:58:22.977Z,21.52
2023-01-10T21:03:24.568Z,21.55
2023-01-10T21:08:26.338Z,14.25
2023-01-10T21:13:27.816Z,16.50
2023-01-10T21:18:34.369Z,16.20
2023-01-10T21:23:35.935Z,20.58
2023-01-10T21:28:42.361Z,11.88
2023-01-10T21:33:43.935Z,16.33
2023-01-10T21:38:45.406Z,12.55
2023-01-10T21:43:46.879Z,11.52
2023-01-10T21:48:48.356Z,10.95
2023-01-10T21:53:49.837Z,12.05
2023-01-10T21:58:52.239Z,10.20
2023-01-10T22:03:53.770Z,16.35
2023-01-10T22:08:55.384Z,17.30
2023-01-10T22:13:57.476Z,14.13
2023-01-10T22:18:59.019Z,16.92
2023-01-10T22:24:00.475Z,9.80
2023-01-10T22:29:01.943Z,12.90
2023-01-10T22:34:03.407Z,11.38
2023-01-10T22:39:06.803Z,11.82
2023-01-10T22:44:16.042Z,12.60
2023-01-10T22:49:17.595Z,15.35
2023-01-10T22:54:19.130Z,11.35
2023-01-10T22:59:20.620Z,10.85
2023-01-10T23:04:22.368Z,20.85
2023-01-10T23:09:23.901Z,14.88
2023-01-10T23:14:25.372Z,14.40
2023-01-10T23:19:26.844Z,12.65
2023-01-10T23:24:28.399Z,18.83
2023-01-10T23:29:29.865Z,15.90
2023-01-10T23:34:31.392Z,14.30
2023-01-10T23:39:32.902Z,22.50
2023-01-10T23:44:34.633Z,14.85
2023-01-10T23:49:36.098Z,18.30
2023-01-10T23:54:37.558Z,23.00
2023-01-10T23:59:39.031Z,13.88
